createdAt,value
2018-06-22T00:00:43.022Z,0
2018-06-22T00:01:51.667Z,0
2018-06-22T00:03:00.312Z,0
2018-06-22T00:04:09.208Z,0
2018-06-22T00:05:17.855Z,0
2018-06-22T00:06:26.750Z,0
2018-06-22T00:07:35.402Z,0
2018-06-22T00:08:44.300Z,0
2018-06-22T00:09:52.949Z,0
2018-06-22T00:11:01.854Z,0
2018-06-22T00:12:10.503Z,0
2018-06-22T00:13:19.136Z,0
2018-06-22T00:14:27.783Z,0
2018-06-22T00:15:36.424Z,0
2018-06-22T00:16:45.075Z,0
2018-06-22T00:17:53.715Z,0
2018-06-22T00:19:02.349Z,0
2018-06-22T00:20:10.989Z,0
2018-06-22T00:21:19.629Z,0
2018-06-22T00:22:28.279Z,0
2018-06-22T00:23:36.920Z,0
2018-06-22T00:24:45.563Z,0
2018-06-22T00:25:54.460Z,0
2018-06-22T00:27:03.109Z,0
2018-06-22T00:28:11.751Z,0
2018-06-22T00:29:20.395Z,0
2018-06-22T00:30:29.031Z,0
2018-06-22T00:31:37.677Z,0
2018-06-22T00:32:46.319Z,0
2018-06-22T00:33:54.960Z,0
2018-06-22T00:35:03.864Z,0
2018-06-22T00:36:12.508Z,0
2018-06-22T00:37:21.149Z,0
2018-06-22T00:38:29.792Z,0
2018-06-22T00:39:38.702Z,0
2018-06-22T00:40:47.340Z,0
2018-06-22T00:41:55.980Z,0
2018-06-22T00:43:04.623Z,0
2018-06-22T00:44:13.274Z,0
2018-06-22T00:45:21.909Z,0
2018-06-22T00:46:30.551Z,0
2018-06-22T00:47:39.194Z,0
2018-06-22T00:48:47.844Z,0
2018-06-22T00:49:56.745Z,0
2018-06-22T00:51:05.651Z,0
2018-06-22T00:52:14.290Z,0
2018-06-22T00:53:22.938Z,0
2018-06-22T00:54:31.580Z,0
2018-06-22T00:55:40.223Z,0
2018-06-22T00:56:48.870Z,0
2018-06-22T00:57:57.507Z,0
2018-06-22T00:59:06.153Z,0
2018-06-22T01:00:14.797Z,0
2018-06-22T01:01:23.443Z,0
2018-06-22T01:02:32.082Z,0
2018-06-22T01:03:40.731Z,0
2018-06-22T01:04:49.374Z,0
2018-06-22T01:05:58.019Z,0
2018-06-22T01:07:06.915Z,0
2018-06-22T01:08:15.561Z,0
2018-06-22T01:09:24.202Z,0
2018-06-22T01:10:32.845Z,0
2018-06-22T01:11:41.482Z,0
2018-06-22T01:12:50.392Z,0
2018-06-22T01:13:59.033Z,0
2018-06-22T01:15:07.683Z,0
2018-06-22T01:16:16.327Z,0
2018-06-22T01:17:24.962Z,0
2018-06-22T01:18:33.602Z,0
2018-06-22T01:19:42.242Z,0
2018-06-22T01:20:50.887Z,0
2018-06-22T01:21:59.528Z,0
2018-06-22T01:23:08.169Z,0
2018-06-22T01:24:16.808Z,0
2018-06-22T01:25:25.447Z,0
2018-06-22T01:26:34.092Z,0
2018-06-22T01:27:42.731Z,0
2018-06-22T01:28:51.376Z,0
2018-06-22T01:30:00.017Z,0
2018-06-22T01:31:08.654Z,0
2018-06-22T01:32:17.295Z,0
2018-06-22T01:33:25.938Z,0
2018-06-22T01:34:34.581Z,0
2018-06-22T01:35:43.219Z,0
2018-06-22T01:36:51.860Z,0
2018-06-22T01:38:00.503Z,0
2018-06-22T01:39:09.152Z,0
2018-06-22T01:40:17.787Z,0
2018-06-22T01:41:26.698Z,0
2018-06-22T01:42:35.600Z,0
2018-06-22T01:43:44.248Z,0
2018-06-22T01:44:52.885Z,0
2018-06-22T01:46:01.528Z,0
2018-06-22T01:47:10.442Z,0
2018-06-22T01:48:19.091Z,0
2018-06-22T01:49:27.730Z,0
2018-06-22T01:50:36.656Z,0
2018-06-22T01:51:45.292Z,0
2018-06-22T01:52:53.932Z,0
2018-06-22T01:54:02.842Z,0
2018-06-22T01:55:11.484Z,0
2018-06-22T01:56:20.126Z,0
2018-06-22T01:57:28.768Z,0
2018-06-22T01:58:37.413Z,0
2018-06-22T01:59:46.054Z,0
2018-06-22T02:00:54.695Z,0
2018-06-22T02:02:03.858Z,0
2018-06-22T02:03:12.503Z,0
2018-06-22T02:04:21.946Z,0
2018-06-22T02:05:30.594Z,0
2018-06-22T02:06:39.228Z,0
2018-06-22T02:07:47.871Z,0
2018-06-22T02:08:56.512Z,0
2018-06-22T02:10:05.157Z,0
2018-06-22T02:11:13.805Z,0
2018-06-22T02:12:22.442Z,0
2018-06-22T02:13:31.081Z,0
2018-06-22T02:14:39.986Z,0
2018-06-22T02:15:48.633Z,0
2018-06-22T02:16:57.273Z,0
2018-06-22T02:18:05.917Z,0
2018-06-22T02:19:14.558Z,0
2018-06-22T02:20:23.226Z,0
2018-06-22T02:21:31.861Z,0
2018-06-22T02:22:40.765Z,0
2018-06-22T02:23:49.407Z,0
2018-06-22T02:24:58.055Z,0
2018-06-22T02:26:06.693Z,0
2018-06-22T02:27:15.332Z,0
2018-06-22T02:28:23.972Z,0
2018-06-22T02:29:32.884Z,0
2018-06-22T02:30:41.530Z,0
2018-06-22T02:31:50.435Z,0
2018-06-22T02:32:59.347Z,0
2018-06-22T02:34:08.251Z,0
2018-06-22T02:35:17.179Z,0
2018-06-22T02:36:25.823Z,0
2018-06-22T02:37:34.739Z,0
2018-06-22T02:38:43.375Z,0
2018-06-22T02:39:52.295Z,0
2018-06-22T02:41:00.933Z,0
2018-06-22T02:42:09.849Z,0
2018-06-22T02:43:18.482Z,0
2018-06-22T02:44:27.402Z,0
2018-06-22T02:45:36.055Z,0
2018-06-22T02:46:44.700Z,0
2018-06-22T02:47:53.614Z,0
2018-06-22T02:49:02.248Z,0
2018-06-22T02:50:11.172Z,0
2018-06-22T02:51:20.068Z,0
2018-06-22T02:52:28.999Z,0
2018-06-22T02:53:37.632Z,0
2018-06-22T02:54:46.283Z,0
2018-06-22T02:55:54.923Z,0
2018-06-22T02:57:03.851Z,0
2018-06-22T02:58:13.009Z,0
2018-06-22T02:59:21.656Z,0
2018-06-22T03:00:30.308Z,0
2018-06-22T03:01:38.968Z,0
2018-06-22T03:02:47.612Z,0
2018-06-22T03:03:56.513Z,0
2018-06-22T03:05:05.259Z,0
2018-06-22T03:06:14.577Z,0
2018-06-22T03:07:23.540Z,0
2018-06-22T03:08:33.030Z,0
2018-06-22T03:09:41.701Z,0
2018-06-22T03:10:50.343Z,0
2018-06-22T03:11:58.992Z,0
2018-06-22T03:13:07.891Z,0
2018-06-22T03:14:17.074Z,0
2018-06-22T03:15:25.705Z,0
2018-06-22T03:16:34.627Z,0
2018-06-22T03:17:43.270Z,0
2018-06-22T03:18:51.920Z,0
2018-06-22T03:20:00.556Z,0
2018-06-22T03:21:09.736Z,0
2018-06-22T03:22:18.647Z,0
2018-06-22T03:23:27.293Z,0
2018-06-22T03:24:35.939Z,0
2018-06-22T03:25:44.570Z,0
2018-06-22T03:26:53.217Z,0
2018-06-22T03:28:01.860Z,0
2018-06-22T03:29:10.781Z,0
2018-06-22T03:30:19.679Z,0
2018-06-22T03:31:28.329Z,0
2018-06-22T03:32:36.971Z,0
2018-06-22T03:33:45.622Z,0
2018-06-22T03:34:54.257Z,0
2018-06-22T03:36:03.166Z,0
2018-06-22T03:37:11.808Z,0
2018-06-22T03:38:20.456Z,0
2018-06-22T03:39:29.097Z,0
2018-06-22T03:40:37.735Z,0
2018-06-22T03:41:46.373Z,0
2018-06-22T03:42:55.012Z,0
2018-06-22T03:44:03.660Z,0
2018-06-22T03:45:12.298Z,0
2018-06-22T03:46:20.944Z,0
2018-06-22T03:47:29.576Z,0
2018-06-22T03:48:38.228Z,0
2018-06-22T03:49:46.894Z,0
2018-06-22T03:50:55.810Z,0
2018-06-22T03:52:04.442Z,0
2018-06-22T03:53:13.093Z,5
2018-06-22T03:54:21.732Z,5
2018-06-22T03:55:30.380Z,5
2018-06-22T03:56:39.018Z,5
2018-06-22T03:57:47.658Z,5
2018-06-22T03:58:56.570Z,5
2018-06-22T04:00:05.215Z,5
2018-06-22T04:01:13.860Z,5
2018-06-22T04:02:22.493Z,5
2018-06-22T04:03:31.403Z,5
2018-06-22T04:04:40.041Z,10
2018-06-22T04:05:48.692Z,10
2018-06-22T04:06:57.327Z,5
2018-06-22T04:08:06.024Z,5
2018-06-22T04:09:14.612Z,5
2018-06-22T04:10:23.542Z,5
2018-06-22T04:11:32.174Z,5
2018-06-22T04:12:40.815Z,5
2018-06-22T04:13:49.457Z,5
2018-06-22T04:14:58.108Z,5
2018-06-22T04:16:06.750Z,5
2018-06-22T04:17:15.387Z,5
2018-06-22T04:18:24.031Z,5
2018-06-22T04:19:32.671Z,5
2018-06-22T04:20:41.581Z,5
2018-06-22T04:21:50.224Z,5
2018-06-22T04:22:59.131Z,5
2018-06-22T04:24:08.033Z,5
2018-06-22T04:25:16.681Z,5
2018-06-22T04:26:25.324Z,5
2018-06-22T04:27:34.230Z,5
2018-06-22T04:28:42.871Z,5
2018-06-22T04:29:51.519Z,5
2018-06-22T04:31:00.159Z,5
2018-06-22T04:32:08.803Z,10
2018-06-22T04:33:17.443Z,10
2018-06-22T04:34:26.346Z,10
2018-06-22T04:35:34.989Z,10
2018-06-22T04:36:43.629Z,10
2018-06-22T04:37:52.273Z,10
2018-06-22T04:39:00.915Z,10
2018-06-22T04:40:09.553Z,10
2018-06-22T04:41:18.197Z,15
2018-06-22T04:42:26.842Z,10
2018-06-22T04:43:35.480Z,10
2018-06-22T04:44:44.123Z,15
2018-06-22T04:45:52.768Z,15
2018-06-22T04:47:01.947Z,15
2018-06-22T04:48:10.586Z,15
2018-06-22T04:49:19.502Z,15
2018-06-22T04:50:28.141Z,15
2018-06-22T04:51:37.316Z,15
2018-06-22T04:52:45.960Z,15
2018-06-22T04:53:54.598Z,15
2018-06-22T04:55:03.238Z,15
2018-06-22T04:56:11.943Z,20
2018-06-22T04:57:20.523Z,20
2018-06-22T04:58:29.170Z,20
2018-06-22T04:59:37.810Z,20
2018-06-22T05:00:46.442Z,20
2018-06-22T05:01:55.087Z,25
2018-06-22T05:03:03.728Z,30
2018-06-22T05:04:12.369Z,35
2018-06-22T05:05:21.266Z,40
2018-06-22T05:06:29.915Z,30
2018-06-22T05:07:38.555Z,20
2018-06-22T05:08:47.201Z,20
2018-06-22T05:09:56.101Z,25
2018-06-22T05:11:05.016Z,35
2018-06-22T05:12:13.659Z,40
2018-06-22T05:13:22.302Z,40
2018-06-22T05:14:30.947Z,45
2018-06-22T05:15:40.158Z,45
2018-06-22T05:16:49.055Z,50
2018-06-22T05:17:57.701Z,45
2018-06-22T05:19:06.339Z,40
2018-06-22T05:20:14.984Z,45
2018-06-22T05:21:23.625Z,65
2018-06-22T05:22:32.534Z,70
2018-06-22T05:23:41.162Z,75
2018-06-22T05:24:49.834Z,50
2018-06-22T05:25:58.837Z,45
2018-06-22T05:27:07.713Z,45
2018-06-22T05:28:16.349Z,45
2018-06-22T05:29:24.993Z,60
2018-06-22T05:30:33.641Z,55
2018-06-22T05:31:42.278Z,45
2018-06-22T05:32:50.919Z,50
2018-06-22T05:33:59.558Z,75
2018-06-22T05:35:08.460Z,65
2018-06-22T05:36:17.102Z,50
2018-06-22T05:37:25.747Z,50
2018-06-22T05:38:34.386Z,55
2018-06-22T05:39:43.296Z,75
2018-06-22T05:40:51.937Z,100
2018-06-22T05:42:00.585Z,120
2018-06-22T05:43:09.220Z,165
2018-06-22T05:44:18.126Z,145
2018-06-22T05:45:26.765Z,140
2018-06-22T05:46:35.414Z,165
2018-06-22T05:47:44.052Z,170
2018-06-22T05:48:52.952Z,155
2018-06-22T05:50:01.594Z,150
2018-06-22T05:51:10.876Z,160
2018-06-22T05:52:19.525Z,105
2018-06-22T05:53:28.428Z,110
2018-06-22T05:54:37.343Z,115
2018-06-22T05:55:45.980Z,130
2018-06-22T05:56:54.629Z,140
2018-06-22T05:58:03.269Z,145
2018-06-22T05:59:11.908Z,145
2018-06-22T06:00:20.545Z,135
2018-06-22T06:01:29.189Z,130
2018-06-22T06:02:37.827Z,145
2018-06-22T06:03:46.742Z,150
2018-06-22T06:04:55.383Z,175
2018-06-22T06:06:04.550Z,200
2018-06-22T06:07:13.192Z,175
2018-06-22T06:08:21.839Z,145
2018-06-22T06:09:30.492Z,130
2018-06-22T06:10:39.382Z,150
2018-06-22T06:11:48.020Z,140
2018-06-22T06:12:56.940Z,170
2018-06-22T06:14:05.589Z,200
2018-06-22T06:15:14.226Z,245
2018-06-22T06:16:23.143Z,210
2018-06-22T06:17:31.781Z,250
2018-06-22T06:18:40.726Z,215
2018-06-22T06:19:49.361Z,205
2018-06-22T06:20:58.006Z,190
2018-06-22T06:22:06.649Z,130
2018-06-22T06:23:15.301Z,105
2018-06-22T06:24:23.939Z,100
2018-06-22T06:25:32.578Z,130
2018-06-22T06:26:41.216Z,135
2018-06-22T06:27:49.855Z,125
2018-06-22T06:28:58.510Z,145
2018-06-22T06:30:07.421Z,160
2018-06-22T06:31:16.071Z,165
2018-06-22T06:32:24.705Z,150
2018-06-22T06:33:33.358Z,145
2018-06-22T06:34:41.996Z,160
2018-06-22T06:35:50.641Z,155
2018-06-22T06:36:59.275Z,140
2018-06-22T06:38:08.469Z,95
2018-06-22T06:39:17.376Z,100
2018-06-22T06:40:26.287Z,120
2018-06-22T06:41:34.920Z,190
2018-06-22T06:42:43.826Z,160
2018-06-22T06:43:52.473Z,210
2018-06-22T06:45:01.120Z,165
2018-06-22T06:46:09.768Z,185
2018-06-22T06:47:18.406Z,210
2018-06-22T06:48:27.046Z,215
2018-06-22T06:49:35.733Z,170
2018-06-22T06:50:44.702Z,140
2018-06-22T06:51:53.337Z,135
2018-06-22T06:53:02.249Z,130
2018-06-22T06:54:10.888Z,165
2018-06-22T06:55:19.538Z,185
2018-06-22T06:56:28.173Z,250
2018-06-22T06:57:36.819Z,280
2018-06-22T06:58:45.458Z,350
2018-06-22T06:59:54.109Z,300
2018-06-22T07:01:02.751Z,300
2018-06-22T07:02:11.389Z,370
2018-06-22T07:03:20.036Z,190
2018-06-22T07:04:28.680Z,215
2018-06-22T07:05:37.334Z,235
2018-06-22T07:06:46.237Z,220
2018-06-22T07:07:54.880Z,200
2018-06-22T07:09:03.514Z,225
2018-06-22T07:10:12.167Z,215
2018-06-22T07:11:20.807Z,260
2018-06-22T07:12:29.455Z,185
2018-06-22T07:13:38.094Z,165
2018-06-22T07:14:46.742Z,190
2018-06-22T07:15:55.389Z,250
2018-06-22T07:17:04.074Z,295
2018-06-22T07:18:12.693Z,425
2018-06-22T07:19:21.337Z,390
2018-06-22T07:20:30.247Z,245
2018-06-22T07:21:38.893Z,230
2018-06-22T07:22:47.539Z,245
2018-06-22T07:23:56.177Z,255
2018-06-22T07:25:04.821Z,215
2018-06-22T07:26:13.461Z,215
2018-06-22T07:27:22.111Z,345
2018-06-22T07:28:30.753Z,170
2018-06-22T07:29:39.393Z,225
2018-06-22T07:30:48.038Z,195
2018-06-22T07:31:56.685Z,185
2018-06-22T07:33:05.325Z,195
2018-06-22T07:34:13.976Z,205
2018-06-22T07:35:22.616Z,225
2018-06-22T07:36:31.536Z,205
2018-06-22T07:37:40.179Z,280
2018-06-22T07:38:48.820Z,305
2018-06-22T07:39:57.470Z,340
2018-06-22T07:41:06.110Z,270
2018-06-22T07:42:14.760Z,230
2018-06-22T07:43:23.671Z,270
2018-06-22T07:44:32.316Z,275
2018-06-22T07:45:41.216Z,185
2018-06-22T07:46:49.866Z,260
2018-06-22T07:47:58.771Z,255
2018-06-22T07:49:07.457Z,280
2018-06-22T07:50:16.058Z,230
2018-06-22T07:51:25.244Z,245
2018-06-22T07:52:33.887Z,250
2018-06-22T07:53:42.531Z,240
2018-06-22T07:54:51.180Z,270
2018-06-22T07:55:59.827Z,215
2018-06-22T07:57:08.499Z,220
2018-06-22T07:58:17.411Z,265
2018-06-22T07:59:26.059Z,255
2018-06-22T08:00:34.700Z,225
2018-06-22T08:01:43.349Z,205
2018-06-22T08:02:52.519Z,235
2018-06-22T08:04:01.171Z,275
2018-06-22T08:05:09.808Z,250
2018-06-22T08:06:18.501Z,235
2018-06-22T08:07:27.095Z,245
2018-06-22T08:08:35.744Z,155
2018-06-22T08:09:44.390Z,280
2018-06-22T08:10:53.030Z,335
2018-06-22T08:12:01.943Z,410
2018-06-22T08:13:10.598Z,345
2018-06-22T08:14:19.242Z,365
2018-06-22T08:15:27.882Z,415
2018-06-22T08:16:36.799Z,350
2018-06-22T08:17:45.837Z,260
2018-06-22T08:18:54.490Z,240
2018-06-22T08:20:03.132Z,310
2018-06-22T08:21:11.778Z,335
2018-06-22T08:22:20.683Z,335
2018-06-22T08:23:29.396Z,345
2018-06-22T08:24:38.305Z,350
2018-06-22T08:25:46.954Z,340
2018-06-22T08:26:55.596Z,270
2018-06-22T08:28:04.244Z,175
2018-06-22T08:29:12.889Z,185
2018-06-22T08:30:21.794Z,185
2018-06-22T08:31:30.436Z,235
2018-06-22T08:32:39.345Z,235
2018-06-22T08:33:47.992Z,240
2018-06-22T08:34:56.709Z,260
2018-06-22T08:36:05.288Z,310
2018-06-22T08:37:13.923Z,350
2018-06-22T08:38:22.575Z,300
2018-06-22T08:39:31.215Z,305
2018-06-22T08:40:39.867Z,395
2018-06-22T08:41:48.674Z,410
2018-06-22T08:42:57.156Z,250
2018-06-22T08:44:05.795Z,250
2018-06-22T08:45:14.448Z,235
2018-06-22T08:46:23.084Z,250
2018-06-22T08:47:31.996Z,280
2018-06-22T08:48:40.639Z,310
2018-06-22T08:49:49.297Z,420
2018-06-22T08:50:57.941Z,265
2018-06-22T08:52:06.587Z,275
2018-06-22T08:53:15.229Z,285
2018-06-22T08:54:24.127Z,405
2018-06-22T08:55:32.781Z,435
2018-06-22T08:56:41.422Z,325
2018-06-22T08:57:50.073Z,325
2018-06-22T08:58:58.976Z,365
2018-06-22T09:00:07.632Z,350
2018-06-22T09:01:16.331Z,300
2018-06-22T09:02:24.923Z,320
2018-06-22T09:03:33.560Z,335
2018-06-22T09:04:42.211Z,345
2018-06-22T09:05:51.395Z,285
2018-06-22T09:07:00.311Z,265
2018-06-22T09:08:09.295Z,230
2018-06-22T09:09:17.860Z,225
2018-06-22T09:10:26.514Z,230
2018-06-22T09:11:35.414Z,290
2018-06-22T09:12:44.059Z,315
2018-06-22T09:13:52.714Z,340
2018-06-22T09:15:01.358Z,380
2018-06-22T09:16:10.541Z,350
2018-06-22T09:17:19.178Z,330
2018-06-22T09:18:27.833Z,360
2018-06-22T09:19:36.482Z,370
2018-06-22T09:20:45.123Z,370
2018-06-22T09:21:53.760Z,360
2018-06-22T09:23:02.416Z,375
2018-06-22T09:24:11.060Z,350
2018-06-22T09:25:19.778Z,345
2018-06-22T09:26:28.360Z,325
2018-06-22T09:27:36.993Z,300
2018-06-22T09:28:45.660Z,300
2018-06-22T09:29:54.315Z,340
2018-06-22T09:31:02.963Z,370
2018-06-22T09:32:11.599Z,365
2018-06-22T09:33:20.254Z,350
2018-06-22T09:34:28.904Z,355
2018-06-22T09:35:37.563Z,365
2018-06-22T09:36:46.265Z,350
2018-06-22T09:37:54.848Z,300
2018-06-22T09:39:03.493Z,230
2018-06-22T09:40:12.408Z,160
2018-06-22T09:41:21.316Z,135
2018-06-22T09:42:30.273Z,130
2018-06-22T09:43:39.133Z,190
2018-06-22T09:44:47.781Z,160
2018-06-22T09:45:56.427Z,190
2018-06-22T09:47:05.069Z,190
2018-06-22T09:48:13.713Z,195
2018-06-22T09:49:22.366Z,200
2018-06-22T09:50:31.021Z,200
2018-06-22T09:51:39.662Z,135
2018-06-22T09:52:48.312Z,185
2018-06-22T09:53:56.953Z,250
2018-06-22T09:55:05.638Z,350
2018-06-22T09:56:14.507Z,390
2018-06-22T09:57:23.421Z,330
2018-06-22T09:58:32.059Z,310
2018-06-22T09:59:40.713Z,305
2018-06-22T10:00:49.381Z,300
2018-06-22T10:01:58.010Z,315
2018-06-22T10:03:06.648Z,265
2018-06-22T10:04:15.558Z,250
2018-06-22T10:05:24.208Z,200
2018-06-22T10:06:33.123Z,230
2018-06-22T10:07:42.045Z,315
2018-06-22T10:08:50.945Z,295
2018-06-22T10:09:59.599Z,445
2018-06-22T10:11:08.248Z,370
2018-06-22T10:12:16.899Z,395
2018-06-22T10:13:25.540Z,485
2018-06-22T10:14:34.189Z,445
2018-06-22T10:15:43.110Z,330
2018-06-22T10:16:51.762Z,275
2018-06-22T10:18:00.660Z,280
2018-06-22T10:19:09.308Z,255
2018-06-22T10:20:17.952Z,235
2018-06-22T10:21:26.601Z,255
2018-06-22T10:22:35.254Z,295
2018-06-22T10:23:43.900Z,305
2018-06-22T10:24:52.543Z,350
2018-06-22T10:26:01.191Z,275
2018-06-22T10:27:10.117Z,215
2018-06-22T10:28:19.023Z,185
2018-06-22T10:29:27.668Z,270
2018-06-22T10:30:36.311Z,290
2018-06-22T10:31:44.963Z,320
2018-06-22T10:32:53.610Z,310
2018-06-22T10:34:02.269Z,335
2018-06-22T10:35:10.906Z,320
2018-06-22T10:36:19.815Z,375
2018-06-22T10:37:28.464Z,355
2018-06-22T10:38:37.112Z,345
2018-06-22T10:39:45.754Z,325
2018-06-22T10:40:54.406Z,330
2018-06-22T10:42:03.052Z,300
2018-06-22T10:43:11.701Z,265
2018-06-22T10:44:20.349Z,240
2018-06-22T10:45:28.992Z,220
2018-06-22T10:46:37.638Z,210
2018-06-22T10:47:46.286Z,205
2018-06-22T10:48:54.943Z,210
2018-06-22T10:50:03.589Z,210
2018-06-22T10:51:12.235Z,210
2018-06-22T10:52:20.883Z,210
2018-06-22T10:53:29.536Z,225
2018-06-22T10:54:38.438Z,225
2018-06-22T10:55:47.082Z,230
2018-06-22T10:56:55.990Z,245
2018-06-22T10:58:04.641Z,280
2018-06-22T10:59:13.286Z,330
2018-06-22T11:00:21.934Z,385
2018-06-22T11:01:30.577Z,435
2018-06-22T11:02:39.222Z,285
2018-06-22T11:03:48.470Z,430
2018-06-22T11:04:57.116Z,430
2018-06-22T11:06:05.768Z,440
2018-06-22T11:07:14.411Z,370
2018-06-22T11:08:23.063Z,315
2018-06-22T11:09:31.713Z,375
2018-06-22T11:10:40.355Z,435
2018-06-22T11:11:49.018Z,400
2018-06-22T11:12:57.652Z,425
2018-06-22T11:14:06.307Z,415
2018-06-22T11:15:14.954Z,395
2018-06-22T11:16:23.608Z,360
2018-06-22T11:17:32.255Z,340
2018-06-22T11:18:40.898Z,395
2018-06-22T11:19:49.543Z,315
2018-06-22T11:20:58.455Z,345
2018-06-22T11:22:07.113Z,400
2018-06-22T11:23:15.757Z,415
2018-06-22T11:24:24.456Z,405
2018-06-22T11:25:33.047Z,365
2018-06-22T11:26:41.703Z,290
2018-06-22T11:27:50.347Z,255
2018-06-22T11:28:58.994Z,205
2018-06-22T11:30:07.633Z,160
2018-06-22T11:31:16.562Z,120
2018-06-22T11:32:25.206Z,80
2018-06-22T11:33:33.858Z,60
2018-06-22T11:34:42.499Z,55
2018-06-22T11:35:51.167Z,75
2018-06-22T11:36:59.804Z,105
2018-06-22T11:38:08.452Z,150
2018-06-22T11:39:17.101Z,175
2018-06-22T11:40:26.000Z,230
2018-06-22T11:41:35.074Z,290
2018-06-22T11:42:43.980Z,310
2018-06-22T11:43:52.637Z,300
2018-06-22T11:45:01.273Z,260
2018-06-22T11:46:09.925Z,205
2018-06-22T11:47:18.568Z,180
2018-06-22T11:48:27.225Z,205
2018-06-22T11:49:35.863Z,170
2018-06-22T11:50:44.513Z,200
2018-06-22T11:51:53.157Z,225
2018-06-22T11:53:01.810Z,310
2018-06-22T11:54:10.719Z,265
2018-06-22T11:55:19.360Z,300
2018-06-22T11:56:28.011Z,330
2018-06-22T11:57:36.653Z,390
2018-06-22T11:58:45.306Z,310
2018-06-22T11:59:53.951Z,355
2018-06-22T12:01:02.602Z,400
2018-06-22T12:02:11.239Z,325
2018-06-22T12:03:19.895Z,310
2018-06-22T12:04:28.539Z,280
2018-06-22T12:05:37.450Z,270
2018-06-22T12:06:46.090Z,260
2018-06-22T12:07:54.740Z,250
2018-06-22T12:09:03.384Z,210
2018-06-22T12:10:12.298Z,240
2018-06-22T12:11:20.945Z,190
2018-06-22T12:12:29.591Z,140
2018-06-22T12:13:38.239Z,115
2018-06-22T12:14:46.886Z,100
2018-06-22T12:15:55.535Z,100
2018-06-22T12:17:04.176Z,115
2018-06-22T12:18:12.823Z,145
2018-06-22T12:19:21.692Z,170
2018-06-22T12:20:30.124Z,215
2018-06-22T12:21:38.766Z,235
2018-06-22T12:22:47.676Z,375
2018-06-22T12:23:56.322Z,390
2018-06-22T12:25:04.974Z,375
2018-06-22T12:26:13.616Z,335
2018-06-22T12:27:22.269Z,180
2018-06-22T12:28:30.912Z,285
2018-06-22T12:29:39.566Z,340
2018-06-22T12:30:48.214Z,315
2018-06-22T12:31:56.859Z,380
2018-06-22T12:33:05.557Z,290
2018-06-22T12:34:14.153Z,325
2018-06-22T12:35:22.807Z,365
2018-06-22T12:36:31.713Z,330
2018-06-22T12:37:40.363Z,330
2018-06-22T12:38:49.007Z,265
2018-06-22T12:39:57.663Z,170
2018-06-22T12:41:06.306Z,140
2018-06-22T12:42:14.959Z,115
2018-06-22T12:43:23.934Z,105
2018-06-22T12:44:32.589Z,90
2018-06-22T12:45:41.232Z,100
2018-06-22T12:46:49.881Z,115
2018-06-22T12:47:58.524Z,140
2018-06-22T12:49:07.173Z,180
2018-06-22T12:50:15.817Z,270
2018-06-22T12:51:24.466Z,295
2018-06-22T12:52:33.114Z,255
2018-06-22T12:53:41.757Z,205
2018-06-22T12:54:50.677Z,250
2018-06-22T12:55:59.325Z,240
2018-06-22T12:57:07.977Z,245
2018-06-22T12:58:16.618Z,275
2018-06-22T12:59:25.266Z,305
2018-06-22T13:00:33.912Z,300
2018-06-22T13:01:42.828Z,290
2018-06-22T13:02:51.733Z,400
2018-06-22T13:04:00.423Z,450
2018-06-22T13:05:09.031Z,385
2018-06-22T13:06:17.946Z,385
2018-06-22T13:07:26.598Z,320
2018-06-22T13:08:35.240Z,200
2018-06-22T13:09:44.296Z,205
2018-06-22T13:10:52.945Z,175
2018-06-22T13:12:01.666Z,155
2018-06-22T13:13:10.240Z,110
2018-06-22T13:14:19.142Z,95
2018-06-22T13:15:27.796Z,75
2018-06-22T13:16:36.437Z,105
2018-06-22T13:17:45.091Z,195
2018-06-22T13:18:54.005Z,205
2018-06-22T13:20:02.918Z,205
2018-06-22T13:21:11.559Z,235
2018-06-22T13:22:20.207Z,240
2018-06-22T13:23:28.854Z,230
2018-06-22T13:24:37.504Z,325
2018-06-22T13:25:46.147Z,230
2018-06-22T13:26:54.796Z,305
2018-06-22T13:28:03.442Z,275
2018-06-22T13:29:12.087Z,285
2018-06-22T13:30:21.006Z,270
2018-06-22T13:31:29.648Z,280
2018-06-22T13:32:38.292Z,250
2018-06-22T13:33:47.002Z,250
2018-06-22T13:34:55.589Z,255
2018-06-22T13:36:04.236Z,245
2018-06-22T13:37:12.884Z,245
2018-06-22T13:38:21.788Z,245
2018-06-22T13:39:30.438Z,230
2018-06-22T13:40:39.083Z,245
2018-06-22T13:41:47.998Z,275
2018-06-22T13:42:56.639Z,305
2018-06-22T13:44:05.287Z,305
2018-06-22T13:45:13.933Z,305
2018-06-22T13:46:22.585Z,320
2018-06-22T13:47:31.232Z,375
2018-06-22T13:48:39.875Z,305
2018-06-22T13:49:48.521Z,305
2018-06-22T13:50:57.435Z,290
2018-06-22T13:52:06.088Z,320
2018-06-22T13:53:14.993Z,265
2018-06-22T13:54:23.644Z,245
2018-06-22T13:55:32.294Z,160
2018-06-22T13:56:41.207Z,150
2018-06-22T13:57:50.115Z,180
2018-06-22T13:58:58.770Z,160
2018-06-22T14:00:07.674Z,180
2018-06-22T14:01:16.324Z,185
2018-06-22T14:02:24.970Z,200
2018-06-22T14:03:33.616Z,220
2018-06-22T14:04:42.261Z,230
2018-06-22T14:05:50.908Z,255
2018-06-22T14:06:59.560Z,260
2018-06-22T14:08:08.204Z,250
2018-06-22T14:09:16.923Z,235
2018-06-22T14:10:25.493Z,235
2018-06-22T14:11:34.151Z,255
2018-06-22T14:12:42.793Z,245
2018-06-22T14:13:51.712Z,255
2018-06-22T14:15:00.350Z,270
2018-06-22T14:16:09.005Z,290
2018-06-22T14:17:17.652Z,265
2018-06-22T14:18:26.299Z,300
2018-06-22T14:19:35.198Z,305
2018-06-22T14:20:43.848Z,305
2018-06-22T14:21:52.499Z,350
2018-06-22T14:23:01.155Z,350
2018-06-22T14:24:10.053Z,365
2018-06-22T14:25:18.688Z,365
2018-06-22T14:26:27.339Z,350
2018-06-22T14:27:35.982Z,315
2018-06-22T14:28:44.638Z,420
2018-06-22T14:29:53.277Z,435
2018-06-22T14:31:01.977Z,460
2018-06-22T14:32:10.670Z,475
2018-06-22T14:33:19.496Z,470
2018-06-22T14:34:28.133Z,455
2018-06-22T14:35:36.781Z,455
2018-06-22T14:36:45.527Z,445
2018-06-22T14:37:54.085Z,410
2018-06-22T14:39:02.728Z,370
2018-06-22T14:40:11.370Z,345
2018-06-22T14:41:20.011Z,340
2018-06-22T14:42:28.663Z,300
2018-06-22T14:43:37.320Z,300
2018-06-22T14:44:45.965Z,300
2018-06-22T14:45:54.884Z,240
2018-06-22T14:47:03.523Z,220
2018-06-22T14:48:12.182Z,240
2018-06-22T14:49:20.827Z,215
2018-06-22T14:50:29.479Z,210
2018-06-22T14:51:38.118Z,205
2018-06-22T14:52:46.777Z,185
2018-06-22T14:53:55.420Z,130
2018-06-22T14:55:04.337Z,180
2018-06-22T14:56:12.978Z,180
2018-06-22T14:57:21.631Z,180
2018-06-22T14:58:30.551Z,100
2018-06-22T14:59:39.201Z,100
2018-06-22T15:00:47.851Z,145
2018-06-22T15:01:56.494Z,225
2018-06-22T15:03:05.421Z,175
2018-06-22T15:04:14.051Z,205
2018-06-22T15:05:23.109Z,210
2018-06-22T15:06:31.751Z,195
2018-06-22T15:07:40.401Z,170
2018-06-22T15:08:49.045Z,170
2018-06-22T15:09:57.694Z,170
2018-06-22T15:11:06.606Z,170
2018-06-22T15:12:15.256Z,170
2018-06-22T15:13:23.901Z,180
2018-06-22T15:14:32.552Z,195
2018-06-22T15:15:41.197Z,230
2018-06-22T15:16:49.848Z,190
2018-06-22T15:17:58.498Z,210
2018-06-22T15:19:07.141Z,170
2018-06-22T15:20:15.797Z,215
2018-06-22T15:21:24.703Z,220
2018-06-22T15:22:33.613Z,255
2018-06-22T15:23:42.255Z,285
2018-06-22T15:24:50.908Z,280
2018-06-22T15:25:59.822Z,220
2018-06-22T15:27:08.469Z,245
2018-06-22T15:28:17.113Z,240
2018-06-22T15:29:25.764Z,215
2018-06-22T15:30:34.411Z,240
2018-06-22T15:31:43.330Z,235
2018-06-22T15:32:51.974Z,260
2018-06-22T15:34:00.880Z,255
2018-06-22T15:35:09.795Z,255
2018-06-22T15:36:18.446Z,205
2018-06-22T15:37:27.097Z,210
2018-06-22T15:38:35.742Z,230
2018-06-22T15:39:44.407Z,245
2018-06-22T15:40:53.039Z,250
2018-06-22T15:42:01.693Z,300
2018-06-22T15:43:10.351Z,290
2018-06-22T15:44:18.981Z,240
2018-06-22T15:45:27.628Z,185
2018-06-22T15:46:36.281Z,160
2018-06-22T15:47:44.923Z,155
2018-06-22T15:48:53.835Z,150
2018-06-22T15:50:02.481Z,150
2018-06-22T15:51:11.133Z,155
2018-06-22T15:52:19.790Z,160
2018-06-22T15:53:28.433Z,180
2018-06-22T15:54:37.078Z,215
2018-06-22T15:55:45.724Z,210
2018-06-22T15:56:54.376Z,165
2018-06-22T15:58:03.023Z,160
2018-06-22T15:59:11.669Z,155
2018-06-22T16:00:20.312Z,155
2018-06-22T16:01:28.962Z,160
2018-06-22T16:02:37.604Z,155
2018-06-22T16:03:46.262Z,155
2018-06-22T16:04:55.166Z,175
2018-06-22T16:06:04.100Z,160
2018-06-22T16:07:13.006Z,105